sensor_id;sensor_type;location;lat;lon;timestamp;P1;durP1;ratioP1;P2;durP2;ratioP2
71104;SDS011;58760;48.716;8.962;2022-07-29T00:01:56;7.68;;;3.22;;
71104;SDS011;58760;48.716;8.962;2022-07-29T00:04:21;10.13;;;3.88;;
71104;SDS011;58760;48.716;8.962;2022-07-29T00:06:47;7.47;;;3.80;;
71104;SDS011;58760;48.716;8.962;2022-07-29T00:09:12;7.78;;;3.78;;
71104;SDS011;58760;48.716;8.962;2022-07-29T00:11:38;11.88;;;4.15;;
71104;SDS011;58760;48.716;8.962;2022-07-29T00:14:03;8.43;;;3.95;;
71104;SDS011;58760;48.716;8.962;2022-07-29T00:16:29;7.75;;;4.40;;
71104;SDS011;58760;48.716;8.962;2022-07-29T00:18:54;7.15;;;3.70;;
71104;SDS011;58760;48.716;8.962;2022-07-29T00:21:20;9.52;;;4.05;;
71104;SDS011;58760;48.716;8.962;2022-07-29T00:23:45;6.50;;;3.97;;
71104;SDS011;58760;48.716;8.962;2022-07-29T00:26:11;9.13;;;3.65;;
71104;SDS011;58760;48.716;8.962;2022-07-29T00:28:36;7.03;;;3.47;;
71104;SDS011;58760;48.716;8.962;2022-07-29T00:31:02;6.57;;;3.72;;
71104;SDS011;58760;48.716;8.962;2022-07-29T00:33:28;7.57;;;3.83;;
71104;SDS011;58760;48.716;8.962;2022-07-29T00:35:54;7.03;;;4.13;;
71104;SDS011;58760;48.716;8.962;2022-07-29T00:38:19;8.20;;;3.95;;
71104;SDS011;58760;48.716;8.962;2022-07-29T00:40:45;8.55;;;4.15;;
71104;SDS011;58760;48.716;8.962;2022-07-29T00:43:12;7.13;;;4.10;;
71104;SDS011;58760;48.716;8.962;2022-07-29T00:45:38;8.48;;;4.07;;
71104;SDS011;58760;48.716;8.962;2022-07-29T00:48:05;8.30;;;4.45;;
71104;SDS011;58760;48.716;8.962;2022-07-29T00:50:31;8.48;;;4.15;;
71104;SDS011;58760;48.716;8.962;2022-07-29T00:52:57;6.60;;;3.63;;
71104;SDS011;58760;48.716;8.962;2022-07-29T00:55:23;9.30;;;3.83;;
71104;SDS011;58760;48.716;8.962;2022-07-29T00:57:48;8.88;;;4.10;;
71104;SDS011;58760;48.716;8.962;2022-07-29T01:00:16;6.65;;;3.53;;
71104;SDS011;58760;48.716;8.962;2022-07-29T01:02:44;7.10;;;3.88;;
71104;SDS011;58760;48.716;8.962;2022-07-29T01:05:13;7.25;;;3.92;;
71104;SDS011;58760;48.716;8.962;2022-07-29T01:07:40;7.85;;;3.88;;
71104;SDS011;58760;48.716;8.962;2022-07-29T01:10:07;8.95;;;4.10;;
71104;SDS011;58760;48.716;8.962;2022-07-29T01:12:34;8.65;;;4.38;;
71104;SDS011;58760;48.716;8.962;2022-07-29T01:15:02;11.50;;;5.20;;
71104;SDS011;58760;48.716;8.962;2022-07-29T01:20:12;9.65;;;4.43;;
71104;SDS011;58760;48.716;8.962;2022-07-29T01:23:01;9.38;;;5.25;;
71104;SDS011;58760;48.716;8.962;2022-07-29T01:28:52;8.40;;;5.35;;
71104;SDS011;58760;48.716;8.962;2022-07-29T01:32:10;9.00;;;5.00;;
71104;SDS011;58760;48.716;8.962;2022-07-29T01:34:53;9.80;;;4.97;;
71104;SDS011;58760;48.716;8.962;2022-07-29T01:37:26;9.65;;;5.47;;
71104;SDS011;58760;48.716;8.962;2022-07-29T01:39:58;12.38;;;6.03;;
71104;SDS011;58760;48.716;8.962;2022-07-29T01:42:31;11.13;;;5.70;;
71104;SDS011;58760;48.716;8.962;2022-07-29T01:45:08;9.05;;;5.38;;
71104;SDS011;58760;48.716;8.962;2022-07-29T01:47:43;10.00;;;5.85;;
71104;SDS011;58760;48.716;8.962;2022-07-29T01:50:16;10.85;;;5.75;;
71104;SDS011;58760;48.716;8.962;2022-07-29T01:52:47;9.23;;;5.53;;
71104;SDS011;58760;48.716;8.962;2022-07-29T01:55:17;9.32;;;5.60;;
71104;SDS011;58760;48.716;8.962;2022-07-29T01:57:47;8.40;;;4.80;;
71104;SDS011;58760;48.716;8.962;2022-07-29T02:00:14;11.57;;;5.28;;
71104;SDS011;58760;48.716;8.962;2022-07-29T02:02:41;10.20;;;5.15;;
71104;SDS011;58760;48.716;8.962;2022-07-29T02:05:10;10.20;;;5.15;;
71104;SDS011;58760;48.716;8.962;2022-07-29T02:07:40;13.05;;;6.20;;
71104;SDS011;58760;48.716;8.962;2022-07-29T02:10:07;9.02;;;5.82;;
71104;SDS011;58760;48.716;8.962;2022-07-29T02:12:34;7.90;;;4.75;;
71104;SDS011;58760;48.716;8.962;2022-07-29T02:15:01;8.77;;;5.65;;
71104;SDS011;58760;48.716;8.962;2022-07-29T02:17:31;8.15;;;5.43;;
71104;SDS011;58760;48.716;8.962;2022-07-29T02:20:01;7.70;;;4.70;;
71104;SDS011;58760;48.716;8.962;2022-07-29T02:22:29;10.15;;;5.45;;
71104;SDS011;58760;48.716;8.962;2022-07-29T02:24:57;10.52;;;5.32;;
71104;SDS011;58760;48.716;8.962;2022-07-29T02:27:23;10.82;;;5.40;;
71104;SDS011;58760;48.716;8.962;2022-07-29T02:29:52;7.13;;;4.68;;
71104;SDS011;58760;48.716;8.962;2022-07-29T02:32:19;9.55;;;5.55;;
71104;SDS011;58760;48.716;8.962;2022-07-29T02:34:47;7.95;;;5.03;;
71104;SDS011;58760;48.716;8.962;2022-07-29T02:37:14;8.80;;;5.35;;
71104;SDS011;58760;48.716;8.962;2022-07-29T02:39:42;9.35;;;5.20;;
71104;SDS011;58760;48.716;8.962;2022-07-29T02:42:10;9.70;;;5.55;;
71104;SDS011;58760;48.716;8.962;2022-07-29T02:44:39;9.60;;;5.20;;
71104;SDS011;58760;48.716;8.962;2022-07-29T02:47:17;9.45;;;5.68;;
71104;SDS011;58760;48.716;8.962;2022-07-29T02:50:00;9.57;;;5.97;;
71104;SDS011;58760;48.716;8.962;2022-07-29T02:52:31;9.02;;;5.50;;
71104;SDS011;58760;48.716;8.962;2022-07-29T02:55:45;10.35;;;5.45;;
71104;SDS011;58760;48.716;8.962;2022-07-29T02:58:02;8.65;;;5.03;;
71104;SDS011;58760;48.716;8.962;2022-07-29T03:00:31;7.80;;;4.50;;
71104;SDS011;58760;48.716;8.962;2022-07-29T03:03:02;7.90;;;4.07;;
71104;SDS011;58760;48.716;8.962;2022-07-29T03:05:30;8.15;;;3.88;;
71104;SDS011;58760;48.716;8.962;2022-07-29T03:08:03;7.32;;;4.00;;
71104;SDS011;58760;48.716;8.962;2022-07-29T03:10:30;6.70;;;3.47;;
71104;SDS011;58760;48.716;8.962;2022-07-29T03:15:22;6.70;;;2.53;;
71104;SDS011;58760;48.716;8.962;2022-07-29T03:20:14;7.68;;;3.00;;
71104;SDS011;58760;48.716;8.962;2022-07-29T03:22:41;4.82;;;2.70;;
71104;SDS011;58760;48.716;8.962;2022-07-29T03:25:11;5.82;;;2.90;;
71104;SDS011;58760;48.716;8.962;2022-07-29T03:27:38;5.45;;;2.60;;
71104;SDS011;58760;48.716;8.962;2022-07-29T03:30:05;6.78;;;2.80;;
71104;SDS011;58760;48.716;8.962;2022-07-29T03:32:31;5.55;;;3.03;;
71104;SDS011;58760;48.716;8.962;2022-07-29T03:34:57;5.30;;;2.75;;
71104;SDS011;58760;48.716;8.962;2022-07-29T03:37:22;5.50;;;2.70;;
71104;SDS011;58760;48.716;8.962;2022-07-29T03:39:47;7.68;;;2.50;;
71104;SDS011;58760;48.716;8.962;2022-07-29T03:42:16;4.47;;;2.65;;
71104;SDS011;58760;48.716;8.962;2022-07-29T03:44:45;5.47;;;3.03;;
71104;SDS011;58760;48.716;8.962;2022-07-29T03:47:13;5.40;;;2.72;;
71104;SDS011;58760;48.716;8.962;2022-07-29T03:49:42;5.80;;;2.90;;
71104;SDS011;58760;48.716;8.962;2022-07-29T03:52:11;5.63;;;3.10;;
71104;SDS011;58760;48.716;8.962;2022-07-29T03:54:37;4.85;;;2.42;;
71104;SDS011;58760;48.716;8.962;2022-07-29T03:57:03;5.00;;;2.75;;
71104;SDS011;58760;48.716;8.962;2022-07-29T03:59:32;5.22;;;2.88;;
71104;SDS011;58760;48.716;8.962;2022-07-29T04:01:59;10.50;;;3.42;;
71104;SDS011;58760;48.716;8.962;2022-07-29T04:04:26;6.78;;;4.20;;
71104;SDS011;58760;48.716;8.962;2022-07-29T04:06:51;7.45;;;4.57;;
71104;SDS011;58760;48.716;8.962;2022-07-29T04:09:16;8.02;;;4.07;;
71104;SDS011;58760;48.716;8.962;2022-07-29T04:11:42;8.18;;;4.25;;
71104;SDS011;58760;48.716;8.962;2022-07-29T04:14:07;7.38;;;4.10;;
71104;SDS011;58760;48.716;8.962;2022-07-29T04:16:33;8.52;;;3.38;;
71104;SDS011;58760;48.716;8.962;2022-07-29T04:18:59;7.72;;;3.65;;
71104;SDS011;58760;48.716;8.962;2022-07-29T04:21:24;7.18;;;3.85;;
71104;SDS011;58760;48.716;8.962;2022-07-29T04:23:50;7.05;;;3.95;;
71104;SDS011;58760;48.716;8.962;2022-07-29T04:26:19;9.55;;;4.13;;
71104;SDS011;58760;48.716;8.962;2022-07-29T04:28:45;7.03;;;3.90;;
71104;SDS011;58760;48.716;8.962;2022-07-29T04:31:11;6.47;;;3.78;;
71104;SDS011;58760;48.716;8.962;2022-07-29T04:33:37;7.18;;;4.20;;
71104;SDS011;58760;48.716;8.962;2022-07-29T04:36:03;8.10;;;3.78;;
71104;SDS011;58760;48.716;8.962;2022-07-29T04:38:29;6.43;;;3.88;;
71104;SDS011;58760;48.716;8.962;2022-07-29T04:40:54;6.53;;;3.90;;
71104;SDS011;58760;48.716;8.962;2022-07-29T04:43:19;6.03;;;3.42;;
71104;SDS011;58760;48.716;8.962;2022-07-29T04:45:45;7.50;;;3.97;;
71104;SDS011;58760;48.716;8.962;2022-07-29T04:48:10;8.35;;;4.10;;
71104;SDS011;58760;48.716;8.962;2022-07-29T04:50:39;6.88;;;3.80;;
71104;SDS011;58760;48.716;8.962;2022-07-29T04:53:05;8.30;;;4.10;;
71104;SDS011;58760;48.716;8.962;2022-07-29T04:55:31;7.30;;;4.25;;
71104;SDS011;58760;48.716;8.962;2022-07-29T04:57:57;6.18;;;3.78;;
71104;SDS011;58760;48.716;8.962;2022-07-29T05:00:22;6.85;;;3.67;;
71104;SDS011;58760;48.716;8.962;2022-07-29T05:02:48;6.63;;;3.47;;
71104;SDS011;58760;48.716;8.962;2022-07-29T05:05:14;5.95;;;3.35;;
71104;SDS011;58760;48.716;8.962;2022-07-29T05:07:39;9.30;;;3.97;;
71104;SDS011;58760;48.716;8.962;2022-07-29T05:10:05;6.10;;;3.38;;
71104;SDS011;58760;48.716;8.962;2022-07-29T05:12:30;5.10;;;2.97;;
71104;SDS011;58760;48.716;8.962;2022-07-29T05:14:56;7.85;;;3.90;;
71104;SDS011;58760;48.716;8.962;2022-07-29T05:17:21;6.72;;;3.38;;
71104;SDS011;58760;48.716;8.962;2022-07-29T05:19:46;5.97;;;3.33;;
71104;SDS011;58760;48.716;8.962;2022-07-29T05:22:12;7.78;;;3.58;;
71104;SDS011;58760;48.716;8.962;2022-07-29T05:24:37;6.43;;;3.40;;
71104;SDS011;58760;48.716;8.962;2022-07-29T05:27:03;6.93;;;3.40;;
71104;SDS011;58760;48.716;8.962;2022-07-29T05:29:28;6.75;;;3.63;;
71104;SDS011;58760;48.716;8.962;2022-07-29T05:31:54;6.93;;;3.67;;
71104;SDS011;58760;48.716;8.962;2022-07-29T05:34:19;6.10;;;3.40;;
71104;SDS011;58760;48.716;8.962;2022-07-29T05:36:45;8.27;;;3.63;;
71104;SDS011;58760;48.716;8.962;2022-07-29T05:39:10;8.57;;;3.70;;
71104;SDS011;58760;48.716;8.962;2022-07-29T05:41:37;6.45;;;3.42;;
71104;SDS011;58760;48.716;8.962;2022-07-29T05:44:03;7.57;;;3.65;;
71104;SDS011;58760;48.716;8.962;2022-07-29T05:46:28;6.20;;;3.75;;
71104;SDS011;58760;48.716;8.962;2022-07-29T05:48:54;7.40;;;3.60;;
71104;SDS011;58760;48.716;8.962;2022-07-29T05:51:19;9.02;;;3.72;;
71104;SDS011;58760;48.716;8.962;2022-07-29T05:53:44;6.90;;;3.65;;
71104;SDS011;58760;48.716;8.962;2022-07-29T05:56:10;6.63;;;3.58;;
71104;SDS011;58760;48.716;8.962;2022-07-29T05:58:35;5.63;;;3.13;;
71104;SDS011;58760;48.716;8.962;2022-07-29T06:01:01;7.60;;;4.43;;
71104;SDS011;58760;48.716;8.962;2022-07-29T06:03:26;7.90;;;3.80;;
71104;SDS011;58760;48.716;8.962;2022-07-29T06:05:52;8.45;;;3.80;;
71104;SDS011;58760;48.716;8.962;2022-07-29T06:08:18;9.35;;;4.38;;
71104;SDS011;58760;48.716;8.962;2022-07-29T06:10:43;7.35;;;3.90;;
71104;SDS011;58760;48.716;8.962;2022-07-29T06:13:10;8.95;;;4.00;;
71104;SDS011;58760;48.716;8.962;2022-07-29T06:15:36;6.93;;;3.30;;
71104;SDS011;58760;48.716;8.962;2022-07-29T06:18:04;8.35;;;3.65;;
71104;SDS011;58760;48.716;8.962;2022-07-29T06:20:34;6.97;;;3.65;;
71104;SDS011;58760;48.716;8.962;2022-07-29T06:22:59;7.63;;;3.60;;
71104;SDS011;58760;48.716;8.962;2022-07-29T06:25:25;7.07;;;3.58;;
71104;SDS011;58760;48.716;8.962;2022-07-29T06:27:52;7.85;;;3.42;;
71104;SDS011;58760;48.716;8.962;2022-07-29T06:32:43;8.50;;;3.53;;
71104;SDS011;58760;48.716;8.962;2022-07-29T06:35:08;6.35;;;3.30;;
71104;SDS011;58760;48.716;8.962;2022-07-29T06:37:34;7.22;;;3.85;;
71104;SDS011;58760;48.716;8.962;2022-07-29T06:39:59;8.07;;;3.92;;
71104;SDS011;58760;48.716;8.962;2022-07-29T06:42:43;7.28;;;3.80;;
71104;SDS011;58760;48.716;8.962;2022-07-29T06:45:10;8.20;;;3.65;;
71104;SDS011;58760;48.716;8.962;2022-07-29T06:47:36;7.47;;;3.58;;
71104;SDS011;58760;48.716;8.962;2022-07-29T06:50:02;10.68;;;3.70;;
71104;SDS011;58760;48.716;8.962;2022-07-29T06:52:28;10.60;;;4.00;;
71104;SDS011;58760;48.716;8.962;2022-07-29T06:54:53;9.05;;;4.00;;
71104;SDS011;58760;48.716;8.962;2022-07-29T06:57:20;9.52;;;3.85;;
71104;SDS011;58760;48.716;8.962;2022-07-29T06:59:46;8.35;;;4.15;;
71104;SDS011;58760;48.716;8.962;2022-07-29T07:02:11;7.85;;;3.42;;
71104;SDS011;58760;48.716;8.962;2022-07-29T07:04:37;10.73;;;3.75;;
71104;SDS011;58760;48.716;8.962;2022-07-29T07:07:02;7.53;;;3.63;;
71104;SDS011;58760;48.716;8.962;2022-07-29T07:09:27;7.15;;;3.53;;
71104;SDS011;58760;48.716;8.962;2022-07-29T07:14:18;7.47;;;3.67;;
71104;SDS011;58760;48.716;8.962;2022-07-29T07:16:43;5.65;;;3.13;;
71104;SDS011;58760;48.716;8.962;2022-07-29T07:19:09;10.60;;;3.67;;
71104;SDS011;58760;48.716;8.962;2022-07-29T07:21:34;8.88;;;3.80;;
71104;SDS011;58760;48.716;8.962;2022-07-29T07:26:25;13.88;;;4.00;;
71104;SDS011;58760;48.716;8.962;2022-07-29T07:28:52;8.13;;;3.30;;
71104;SDS011;58760;48.716;8.962;2022-07-29T07:31:17;10.80;;;3.72;;
71104;SDS011;58760;48.716;8.962;2022-07-29T07:36:08;9.32;;;3.58;;
71104;SDS011;58760;48.716;8.962;2022-07-29T07:40:59;7.57;;;3.60;;
71104;SDS011;58760;48.716;8.962;2022-07-29T07:43:25;6.53;;;3.33;;
71104;SDS011;58760;48.716;8.962;2022-07-29T07:45:50;7.35;;;3.30;;
71104;SDS011;58760;48.716;8.962;2022-07-29T07:50:41;6.80;;;2.97;;
71104;SDS011;58760;48.716;8.962;2022-07-29T07:53:08;9.05;;;3.45;;
71104;SDS011;58760;48.716;8.962;2022-07-29T07:58:04;6.57;;;3.08;;
71104;SDS011;58760;48.716;8.962;2022-07-29T08:02:54;6.85;;;3.03;;
71104;SDS011;58760;48.716;8.962;2022-07-29T08:07:45;7.25;;;3.25;;
71104;SDS011;58760;48.716;8.962;2022-07-29T08:10:12;9.88;;;3.40;;
71104;SDS011;58760;48.716;8.962;2022-07-29T08:13:02;8.70;;;3.50;;
71104;SDS011;58760;48.716;8.962;2022-07-29T08:15:31;6.97;;;3.17;;
71104;SDS011;58760;48.716;8.962;2022-07-29T08:20:23;7.10;;;3.30;;
71104;SDS011;58760;48.716;8.962;2022-07-29T08:22:48;8.05;;;3.22;;
71104;SDS011;58760;48.716;8.962;2022-07-29T08:27:39;8.93;;;3.15;;
71104;SDS011;58760;48.716;8.962;2022-07-29T08:30:04;8.30;;;2.95;;
71104;SDS011;58760;48.716;8.962;2022-07-29T08:32:30;5.18;;;2.67;;
71104;SDS011;58760;48.716;8.962;2022-07-29T08:37:21;5.40;;;2.90;;
71104;SDS011;58760;48.716;8.962;2022-07-29T08:39:47;6.85;;;3.20;;
71104;SDS011;58760;48.716;8.962;2022-07-29T08:42:12;14.43;;;3.00;;
71104;SDS011;58760;48.716;8.962;2022-07-29T08:44:38;9.20;;;2.92;;
71104;SDS011;58760;48.716;8.962;2022-07-29T08:47:03;8.88;;;2.97;;
71104;SDS011;58760;48.716;8.962;2022-07-29T08:51:55;6.95;;;2.67;;
71104;SDS011;58760;48.716;8.962;2022-07-29T08:54:22;5.78;;;2.83;;
71104;SDS011;58760;48.716;8.962;2022-07-29T08:56:48;6.88;;;2.92;;
71104;SDS011;58760;48.716;8.962;2022-07-29T08:59:15;10.15;;;2.70;;
71104;SDS011;58760;48.716;8.962;2022-07-29T09:01:44;7.18;;;2.60;;
71104;SDS011;58760;48.716;8.962;2022-07-29T09:04:11;7.40;;;2.75;;
71104;SDS011;58760;48.716;8.962;2022-07-29T09:06:41;6.10;;;2.67;;
71104;SDS011;58760;48.716;8.962;2022-07-29T09:09:09;6.95;;;2.80;;
71104;SDS011;58760;48.716;8.962;2022-07-29T09:11:34;5.88;;;2.65;;
71104;SDS011;58760;48.716;8.962;2022-07-29T09:14:00;6.80;;;2.90;;
71104;SDS011;58760;48.716;8.962;2022-07-29T09:16:25;10.45;;;2.72;;
71104;SDS011;58760;48.716;8.962;2022-07-29T09:18:51;8.05;;;2.88;;
71104;SDS011;58760;48.716;8.962;2022-07-29T09:21:17;11.15;;;2.70;;
71104;SDS011;58760;48.716;8.962;2022-07-29T09:24:11;6.68;;;3.33;;
71104;SDS011;58760;48.716;8.962;2022-07-29T09:26:44;10.60;;;2.97;;
71104;SDS011;58760;48.716;8.962;2022-07-29T09:29:11;7.13;;;2.70;;
71104;SDS011;58760;48.716;8.962;2022-07-29T09:31:42;10.02;;;2.67;;
71104;SDS011;58760;48.716;8.962;2022-07-29T09:34:09;7.35;;;2.95;;
71104;SDS011;58760;48.716;8.962;2022-07-29T09:36:39;7.47;;;2.80;;
71104;SDS011;58760;48.716;8.962;2022-07-29T09:39:14;9.23;;;3.00;;
71104;SDS011;58760;48.716;8.962;2022-07-29T09:41:48;8.00;;;2.80;;
71104;SDS011;58760;48.716;8.962;2022-07-29T09:44:15;5.35;;;2.58;;
71104;SDS011;58760;48.716;8.962;2022-07-29T09:46:54;11.98;;;3.17;;
71104;SDS011;58760;48.716;8.962;2022-07-29T09:49:20;5.78;;;2.67;;
71104;SDS011;58760;48.716;8.962;2022-07-29T09:51:46;7.90;;;2.80;;
71104;SDS011;58760;48.716;8.962;2022-07-29T09:54:21;7.32;;;2.95;;
71104;SDS011;58760;48.716;8.962;2022-07-29T09:56:51;8.57;;;2.97;;
71104;SDS011;58760;48.716;8.962;2022-07-29T09:59:17;10.27;;;2.80;;
71104;SDS011;58760;48.716;8.962;2022-07-29T10:01:42;9.60;;;3.58;;
71104;SDS011;58760;48.716;8.962;2022-07-29T10:04:08;11.57;;;3.03;;
71104;SDS011;58760;48.716;8.962;2022-07-29T10:06:33;10.50;;;3.03;;
71104;SDS011;58760;48.716;8.962;2022-07-29T10:09:09;6.18;;;2.60;;
71104;SDS011;58760;48.716;8.962;2022-07-29T10:11:35;9.07;;;3.20;;
71104;SDS011;58760;48.716;8.962;2022-07-29T10:14:02;7.00;;;2.72;;
71104;SDS011;58760;48.716;8.962;2022-07-29T10:16:28;8.23;;;3.10;;
71104;SDS011;58760;48.716;8.962;2022-07-29T10:18:58;20.95;;;4.28;;
71104;SDS011;58760;48.716;8.962;2022-07-29T10:21:24;20.17;;;6.30;;
71104;SDS011;58760;48.716;8.962;2022-07-29T10:23:50;25.20;;;7.93;;
71104;SDS011;58760;48.716;8.962;2022-07-29T10:28:41;27.75;;;8.13;;
71104;SDS011;58760;48.716;8.962;2022-07-29T10:36:21;21.55;;;5.82;;
71104;SDS011;58760;48.716;8.962;2022-07-29T10:44:20;9.82;;;5.50;;
71104;SDS011;58760;48.716;8.962;2022-07-29T10:46:47;10.98;;;5.80;;
71104;SDS011;58760;48.716;8.962;2022-07-29T10:57:20;14.43;;;7.00;;
71104;SDS011;58760;48.716;8.962;2022-07-29T11:00:25;10.98;;;6.30;;
71104;SDS011;58760;48.716;8.962;2022-07-29T11:02:40;16.98;;;8.23;;
71104;SDS011;58760;48.716;8.962;2022-07-29T11:05:13;19.00;;;8.02;;
71104;SDS011;58760;48.716;8.962;2022-07-29T11:10:39;24.63;;;10.45;;
71104;SDS011;58760;48.716;8.962;2022-07-29T11:13:05;15.65;;;10.02;;
71104;SDS011;58760;48.716;8.962;2022-07-29T11:15:51;17.88;;;9.48;;
71104;SDS011;58760;48.716;8.962;2022-07-29T11:18:19;16.77;;;9.55;;
71104;SDS011;58760;48.716;8.962;2022-07-29T11:20:46;15.20;;;9.35;;
71104;SDS011;58760;48.716;8.962;2022-07-29T11:26:12;16.05;;;10.57;;
71104;SDS011;58760;48.716;8.962;2022-07-29T11:29:04;14.93;;;10.77;;
71104;SDS011;58760;48.716;8.962;2022-07-29T11:31:41;21.75;;;13.15;;
71104;SDS011;58760;48.716;8.962;2022-07-29T11:34:21;17.90;;;14.75;;
71104;SDS011;58760;48.716;8.962;2022-07-29T11:37:37;16.30;;;11.70;;
71104;SDS011;58760;48.716;8.962;2022-07-29T11:44:59;9.38;;;7.22;;
71104;SDS011;58760;48.716;8.962;2022-07-29T11:47:31;14.25;;;7.68;;
71104;SDS011;58760;48.716;8.962;2022-07-29T11:49:58;12.30;;;8.40;;
71104;SDS011;58760;48.716;8.962;2022-07-29T11:52:37;12.30;;;7.93;;
71104;SDS011;58760;48.716;8.962;2022-07-29T11:55:08;13.00;;;8.65;;
71104;SDS011;58760;48.716;8.962;2022-07-29T11:57:38;14.15;;;7.78;;
71104;SDS011;58760;48.716;8.962;2022-07-29T12:00:11;9.45;;;6.53;;
71104;SDS011;58760;48.716;8.962;2022-07-29T12:02:45;14.02;;;6.95;;
71104;SDS011;58760;48.716;8.962;2022-07-29T12:07:36;11.27;;;6.25;;
71104;SDS011;58760;48.716;8.962;2022-07-29T12:10:03;10.73;;;6.68;;
71104;SDS011;58760;48.716;8.962;2022-07-29T12:12:30;13.20;;;7.60;;
71104;SDS011;58760;48.716;8.962;2022-07-29T12:14:56;11.75;;;8.27;;
71104;SDS011;58760;48.716;8.962;2022-07-29T12:17:28;12.00;;;6.97;;
71104;SDS011;58760;48.716;8.962;2022-07-29T12:19:55;13.10;;;7.50;;
71104;SDS011;58760;48.716;8.962;2022-07-29T12:22:28;9.70;;;6.97;;
71104;SDS011;58760;48.716;8.962;2022-07-29T12:25:07;11.48;;;7.18;;
71104;SDS011;58760;48.716;8.962;2022-07-29T12:27:34;11.70;;;6.82;;
71104;SDS011;58760;48.716;8.962;2022-07-29T12:30:01;11.57;;;6.03;;
71104;SDS011;58760;48.716;8.962;2022-07-29T12:32:33;10.38;;;6.10;;
71104;SDS011;58760;48.716;8.962;2022-07-29T12:35:04;8.80;;;5.35;;
71104;SDS011;58760;48.716;8.962;2022-07-29T12:37:33;8.85;;;6.05;;
71104;SDS011;58760;48.716;8.962;2022-07-29T12:40:00;13.18;;;7.22;;
71104;SDS011;58760;48.716;8.962;2022-07-29T12:42:26;10.93;;;6.43;;
71104;SDS011;58760;48.716;8.962;2022-07-29T12:44:52;10.13;;;5.88;;
71104;SDS011;58760;48.716;8.962;2022-07-29T12:49:43;9.88;;;6.63;;
71104;SDS011;58760;48.716;8.962;2022-07-29T12:52:29;9.35;;;6.78;;
71104;SDS011;58760;48.716;8.962;2022-07-29T12:54:56;9.63;;;6.45;;
71104;SDS011;58760;48.716;8.962;2022-07-29T13:02:32;9.27;;;5.43;;
71104;SDS011;58760;48.716;8.962;2022-07-29T13:07:29;9.30;;;5.43;;
71104;SDS011;58760;48.716;8.962;2022-07-29T13:10:13;9.40;;;5.15;;
71104;SDS011;58760;48.716;8.962;2022-07-29T13:15:31;13.57;;;6.55;;
71104;SDS011;58760;48.716;8.962;2022-07-29T13:17:57;8.68;;;5.57;;
71104;SDS011;58760;48.716;8.962;2022-07-29T13:20:27;9.38;;;5.50;;
71104;SDS011;58760;48.716;8.962;2022-07-29T13:22:59;10.40;;;5.72;;
71104;SDS011;58760;48.716;8.962;2022-07-29T13:27:52;10.02;;;6.40;;
71104;SDS011;58760;48.716;8.962;2022-07-29T13:30:19;9.63;;;5.55;;
71104;SDS011;58760;48.716;8.962;2022-07-29T13:32:45;11.32;;;5.40;;
71104;SDS011;58760;48.716;8.962;2022-07-29T13:35:11;7.30;;;4.60;;
71104;SDS011;58760;48.716;8.962;2022-07-29T13:37:37;9.60;;;4.57;;
71104;SDS011;58760;48.716;8.962;2022-07-29T13:40:06;10.15;;;4.60;;
71104;SDS011;58760;48.716;8.962;2022-07-29T13:42:33;7.85;;;4.60;;
71104;SDS011;58760;48.716;8.962;2022-07-29T13:44:59;7.97;;;4.30;;
71104;SDS011;58760;48.716;8.962;2022-07-29T13:49:50;9.15;;;4.45;;
71104;SDS011;58760;48.716;8.962;2022-07-29T13:54:42;9.45;;;5.03;;
71104;SDS011;58760;48.716;8.962;2022-07-29T13:57:08;9.68;;;5.10;;
71104;SDS011;58760;48.716;8.962;2022-07-29T13:59:35;8.38;;;4.70;;
71104;SDS011;58760;48.716;8.962;2022-07-29T14:02:01;9.65;;;4.97;;
71104;SDS011;58760;48.716;8.962;2022-07-29T14:04:27;7.95;;;5.00;;
71104;SDS011;58760;48.716;8.962;2022-07-29T14:06:52;11.20;;;5.35;;
71104;SDS011;58760;48.716;8.962;2022-07-29T14:11:43;10.35;;;5.65;;
71104;SDS011;58760;48.716;8.962;2022-07-29T14:16:35;9.63;;;5.22;;
71104;SDS011;58760;48.716;8.962;2022-07-29T14:19:00;9.65;;;5.55;;
71104;SDS011;58760;48.716;8.962;2022-07-29T14:23:51;9.75;;;5.38;;
71104;SDS011;58760;48.716;8.962;2022-07-29T14:26:17;9.18;;;4.95;;
71104;SDS011;58760;48.716;8.962;2022-07-29T14:31:09;7.53;;;4.47;;
71104;SDS011;58760;48.716;8.962;2022-07-29T14:36:00;9.07;;;5.55;;
71104;SDS011;58760;48.716;8.962;2022-07-29T14:40:51;12.52;;;5.30;;
71104;SDS011;58760;48.716;8.962;2022-07-29T14:45:42;12.45;;;4.50;;
71104;SDS011;58760;48.716;8.962;2022-07-29T14:50:33;10.32;;;5.18;;
71104;SDS011;58760;48.716;8.962;2022-07-29T14:55:24;10.27;;;4.47;;
71104;SDS011;58760;48.716;8.962;2022-07-29T15:00:15;10.50;;;5.23;;
71104;SDS011;58760;48.716;8.962;2022-07-29T15:02:41;9.45;;;4.72;;
71104;SDS011;58760;48.716;8.962;2022-07-29T15:07:32;11.90;;;4.00;;
71104;SDS011;58760;48.716;8.962;2022-07-29T15:09:57;9.23;;;4.63;;
71104;SDS011;58760;48.716;8.962;2022-07-29T15:12:23;7.38;;;4.10;;
71104;SDS011;58760;48.716;8.962;2022-07-29T15:14:48;8.18;;;3.97;;
71104;SDS011;58760;48.716;8.962;2022-07-29T15:17:13;7.15;;;3.83;;
71104;SDS011;58760;48.716;8.962;2022-07-29T15:19:39;8.15;;;4.05;;
71104;SDS011;58760;48.716;8.962;2022-07-29T15:22:05;7.32;;;4.00;;
71104;SDS011;58760;48.716;8.962;2022-07-29T15:24:30;8.05;;;3.60;;
71104;SDS011;58760;48.716;8.962;2022-07-29T15:26:56;6.55;;;3.70;;
71104;SDS011;58760;48.716;8.962;2022-07-29T15:29:21;8.48;;;3.50;;
71104;SDS011;58760;48.716;8.962;2022-07-29T15:31:47;7.97;;;3.80;;
71104;SDS011;58760;48.716;8.962;2022-07-29T15:34:12;7.25;;;4.07;;
71104;SDS011;58760;48.716;8.962;2022-07-29T15:36:38;9.80;;;4.20;;
71104;SDS011;58760;48.716;8.962;2022-07-29T15:39:03;7.85;;;4.03;;
71104;SDS011;58760;48.716;8.962;2022-07-29T15:43:54;8.87;;;4.07;;
71104;SDS011;58760;48.716;8.962;2022-07-29T15:49:04;8.35;;;3.83;;
71104;SDS011;58760;48.716;8.962;2022-07-29T15:51:31;7.65;;;3.75;;
71104;SDS011;58760;48.716;8.962;2022-07-29T15:56:22;9.77;;;4.47;;
71104;SDS011;58760;48.716;8.962;2022-07-29T15:58:48;10.00;;;4.32;;
71104;SDS011;58760;48.716;8.962;2022-07-29T16:01:15;8.00;;;4.03;;
71104;SDS011;58760;48.716;8.962;2022-07-29T16:06:05;7.93;;;4.35;;
71104;SDS011;58760;48.716;8.962;2022-07-29T16:08:31;8.25;;;3.92;;
71104;SDS011;58760;48.716;8.962;2022-07-29T16:13:21;6.70;;;3.53;;
71104;SDS011;58760;48.716;8.962;2022-07-29T16:15:47;7.97;;;3.35;;
71104;SDS011;58760;48.716;8.962;2022-07-29T16:18:12;7.50;;;3.80;;
71104;SDS011;58760;48.716;8.962;2022-07-29T16:20:38;7.93;;;3.47;;
71104;SDS011;58760;48.716;8.962;2022-07-29T16:23:05;6.20;;;3.30;;
71104;SDS011;58760;48.716;8.962;2022-07-29T16:25:33;8.40;;;3.75;;
71104;SDS011;58760;48.716;8.962;2022-07-29T16:30:24;9.23;;;3.72;;
71104;SDS011;58760;48.716;8.962;2022-07-29T16:32:49;7.35;;;3.78;;
71104;SDS011;58760;48.716;8.962;2022-07-29T16:35:14;7.50;;;3.50;;
71104;SDS011;58760;48.716;8.962;2022-07-29T16:37:40;7.20;;;3.85;;
71104;SDS011;58760;48.716;8.962;2022-07-29T16:40:05;8.18;;;3.80;;
71104;SDS011;58760;48.716;8.962;2022-07-29T16:42:32;7.95;;;4.13;;
71104;SDS011;58760;48.716;8.962;2022-07-29T16:44:58;9.93;;;3.83;;
71104;SDS011;58760;48.716;8.962;2022-07-29T16:47:24;6.78;;;3.53;;
71104;SDS011;58760;48.716;8.962;2022-07-29T16:49:50;7.13;;;3.85;;
71104;SDS011;58760;48.716;8.962;2022-07-29T16:52:15;7.72;;;4.05;;
71104;SDS011;58760;48.716;8.962;2022-07-29T16:54:41;6.82;;;3.53;;
71104;SDS011;58760;48.716;8.962;2022-07-29T16:57:06;7.88;;;3.67;;
71104;SDS011;58760;48.716;8.962;2022-07-29T16:59:32;7.38;;;3.67;;
71104;SDS011;58760;48.716;8.962;2022-07-29T17:01:57;7.40;;;3.50;;
71104;SDS011;58760;48.716;8.962;2022-07-29T17:04:26;8.20;;;3.85;;
71104;SDS011;58760;48.716;8.962;2022-07-29T17:06:52;8.23;;;3.90;;